createdAt,value
2017-05-13T00:00:02.040Z,97.13
2017-05-13T00:10:02.519Z,97.18
2017-05-13T00:20:02.600Z,97.33
2017-05-13T00:30:02.078Z,97.36
2017-05-13T00:40:02.632Z,97.24
2017-05-13T00:50:02.510Z,96.93
2017-05-13T01:00:03.012Z,97.18
2017-05-13T01:10:02.501Z,97.55
2017-05-13T01:20:02.519Z,97.67
2017-05-13T01:30:02.979Z,97.5
2017-05-13T01:40:02.459Z,98.12
2017-05-13T01:50:02.368Z,97.15
2017-05-13T02:00:02.836Z,96.69
2017-05-13T02:10:02.275Z,97.7
2017-05-13T02:20:02.370Z,98.09
2017-05-13T02:30:02.790Z,97.92
2017-05-13T02:40:02.299Z,97.85
2017-05-13T02:50:02.153Z,97.21
2017-05-13T03:00:02.637Z,97.85
2017-05-13T03:10:02.327Z,97.79
2017-05-13T03:20:02.347Z,98.45
2017-05-13T03:30:02.841Z,98.66
2017-05-13T03:40:02.326Z,99.02
2017-05-13T03:50:02.214Z,98.97
2017-05-13T04:00:02.706Z,99.1
2017-05-13T04:10:02.248Z,100.58
2017-05-13T04:20:02.858Z,101.26
2017-05-13T04:30:02.400Z,101.31
2017-05-13T04:40:02.794Z,101.25
2017-05-13T04:50:02.203Z,101.04
2017-05-13T05:00:02.280Z,101.49
2017-05-13T05:10:02.325Z,101.55
2017-05-13T05:20:02.965Z,101.65
2017-05-13T05:30:02.351Z,101.29
2017-05-13T05:40:02.410Z,100.97
2017-05-13T05:50:02.793Z,100.82
2017-05-13T06:00:02.833Z,100.59
2017-05-13T06:10:02.882Z,100.77
2017-05-13T06:20:02.478Z,100.91
2017-05-13T06:30:02.835Z,101.13
2017-05-13T06:40:03.048Z,101.86
2017-05-13T06:50:02.471Z,101.9
2017-05-13T07:00:03.066Z,101.65
2017-05-13T07:10:02.214Z,100.08
2017-05-13T07:20:02.900Z,97.65
2017-05-13T07:30:02.465Z,91.37
2017-05-13T07:40:03.018Z,86.86
2017-05-13T07:50:02.772Z,84.25
2017-05-13T08:00:02.977Z,80.05
2017-05-13T08:10:02.206Z,77.34
2017-05-13T08:20:02.951Z,72.88
2017-05-13T08:30:02.415Z,75.26
2017-05-13T08:40:02.181Z,73.27
2017-05-13T08:50:02.870Z,71.69
2017-05-13T09:00:03.035Z,70.22
2017-05-13T09:10:02.586Z,74
2017-05-13T09:20:02.412Z,71.89
2017-05-13T09:30:02.933Z,72.39
2017-05-13T09:40:02.549Z,71.57
2017-05-13T09:50:02.127Z,69.27
2017-05-13T10:00:02.191Z,71.98
2017-05-13T10:10:02.804Z,73.86
2017-05-13T10:20:02.939Z,69.69
2017-05-13T10:30:02.457Z,65.7
2017-05-13T10:40:03.052Z,67.79
2017-05-13T10:50:02.609Z,67.3
2017-05-13T11:00:02.701Z,61.46
2017-05-13T11:10:02.370Z,61.2
2017-05-13T11:20:02.127Z,60.82
2017-05-13T11:30:02.646Z,53.12
2017-05-13T11:40:02.310Z,57.92
2017-05-13T11:50:03.023Z,59.11
2017-05-13T12:00:02.161Z,65.15
2017-05-13T12:10:02.749Z,64.48
2017-05-13T12:20:02.507Z,61.78
2017-05-13T12:30:02.952Z,58.09
2017-05-13T12:40:02.637Z,58.05
2017-05-13T12:50:02.927Z,58.07
2017-05-13T13:00:02.240Z,61.39
2017-05-13T13:10:02.935Z,59.87
2017-05-13T13:20:02.701Z,62.98
2017-05-13T13:30:02.597Z,64.03
2017-05-13T13:40:02.774Z,62.33
2017-05-13T13:50:02.419Z,62.58
2017-05-13T14:00:02.591Z,61.26
2017-05-13T14:10:03.036Z,57.88
2017-05-13T14:20:02.347Z,57.88
2017-05-13T14:30:02.886Z,58.77
2017-05-13T14:40:03.067Z,56.85
2017-05-13T14:50:02.670Z,56.5
2017-05-13T15:00:03.005Z,56.63
2017-05-13T15:10:02.978Z,59.41
2017-05-13T15:20:02.410Z,57.52
2017-05-13T15:30:02.908Z,55.21
2017-05-13T15:40:02.670Z,53.05
2017-05-13T15:50:02.854Z,50.8
2017-05-13T16:00:02.928Z,50.93
2017-05-13T16:10:02.675Z,50.66
2017-05-13T16:20:03.025Z,62.65
2017-05-13T16:30:02.299Z,67.2
2017-05-13T16:40:02.358Z,68.15
2017-05-13T16:50:02.791Z,69.8
2017-05-13T17:00:02.905Z,71.8
2017-05-13T17:10:02.999Z,73.3
2017-05-13T17:20:02.928Z,75.21
2017-05-13T17:30:02.399Z,75.2
2017-05-13T17:40:02.552Z,75.62
2017-05-13T17:50:02.878Z,74.81
2017-05-13T18:00:02.959Z,75.46
2017-05-13T18:10:02.569Z,76.5
2017-05-13T18:20:02.886Z,76.79
2017-05-13T18:30:02.348Z,77.58
2017-05-13T18:40:02.155Z,79.02
2017-05-13T18:50:02.346Z,78.42
2017-05-13T19:00:02.964Z,80.16
2017-05-13T19:10:02.955Z,81.4
2017-05-13T19:20:03.004Z,82.66
2017-05-13T19:30:02.457Z,82.91
2017-05-13T19:40:03.042Z,84.03
2017-05-13T19:50:02.727Z,84.16
2017-05-13T20:00:02.202Z,84.25
2017-05-13T20:10:02.466Z,84.66
2017-05-13T20:20:02.601Z,84.92
2017-05-13T20:30:02.057Z,84.94
2017-05-13T20:40:02.524Z,86.01
2017-05-13T20:50:02.393Z,85.51
2017-05-13T21:00:02.868Z,87.04
2017-05-13T21:10:02.228Z,88.14
2017-05-13T21:20:02.278Z,88.07
2017-05-13T21:30:02.794Z,88.37
2017-05-13T21:40:02.292Z,88.57
2017-05-13T21:50:02.940Z,88.97
2017-05-13T22:00:02.574Z,89.01
2017-05-13T22:10:02.128Z,89.56
2017-05-13T22:20:02.643Z,90.74
2017-05-13T22:30:02.097Z,92.16
2017-05-13T22:40:02.779Z,92
2017-05-13T22:50:02.249Z,91.32
2017-05-13T23:00:02.752Z,91.88
2017-05-13T23:10:02.454Z,92.01
2017-05-13T23:20:02.209Z,92.83
2017-05-13T23:30:02.687Z,93.26
2017-05-13T23:40:02.250Z,92.69
2017-05-13T23:50:02.063Z,93.7
